sensor_id;sensor_type;location;lat;lon;timestamp;P1;durP1;ratioP1;P2;durP2;ratioP2
45490;SDS011;31237;45.586;13.782;2023-02-02T00:00:14;1.40;;;1.35;;
45490;SDS011;31237;45.586;13.782;2023-02-02T00:02:40;3.95;;;1.23;;
45490;SDS011;31237;45.586;13.782;2023-02-02T00:05:06;2.97;;;2.55;;
45490;SDS011;31237;45.586;13.782;2023-02-02T00:07:32;0.40;;;0.40;;
45490;SDS011;31237;45.586;13.782;2023-02-02T00:09:58;4.47;;;1.67;;
45490;SDS011;31237;45.586;13.782;2023-02-02T00:12:23;0.68;;;0.68;;
45490;SDS011;31237;45.586;13.782;2023-02-02T00:14:49;4.22;;;1.95;;
45490;SDS011;31237;45.586;13.782;2023-02-02T00:17:15;1.70;;;1.60;;
45490;SDS011;31237;45.586;13.782;2023-02-02T00:19:41;1.65;;;1.55;;
45490;SDS011;31237;45.586;13.782;2023-02-02T00:22:06;1.48;;;1.38;;
45490;SDS011;31237;45.586;13.782;2023-02-02T00:24:32;3.50;;;3.20;;
45490;SDS011;31237;45.586;13.782;2023-02-02T00:26:58;5.22;;;2.22;;
45490;SDS011;31237;45.586;13.782;2023-02-02T00:29:28;2.13;;;1.92;;
45490;SDS011;31237;45.586;13.782;2023-02-02T00:31:55;1.58;;;1.48;;
45490;SDS011;31237;45.586;13.782;2023-02-02T00:34:21;1.75;;;1.58;;
45490;SDS011;31237;45.586;13.782;2023-02-02T00:36:47;7.30;;;1.75;;
45490;SDS011;31237;45.586;13.782;2023-02-02T00:39:15;2.95;;;2.75;;
45490;SDS011;31237;45.586;13.782;2023-02-02T00:41:42;3.45;;;2.03;;
45490;SDS011;31237;45.586;13.782;2023-02-02T00:44:08;2.03;;;1.90;;
45490;SDS011;31237;45.586;13.782;2023-02-02T00:46:53;1.77;;;1.63;;
45490;SDS011;31237;45.586;13.782;2023-02-02T00:49:19;8.27;;;2.90;;
45490;SDS011;31237;45.586;13.782;2023-02-02T00:51:45;4.50;;;2.90;;
45490;SDS011;31237;45.586;13.782;2023-02-02T00:54:10;1.15;;;1.15;;
45490;SDS011;31237;45.586;13.782;2023-02-02T00:56:38;1.17;;;1.08;;
45490;SDS011;31237;45.586;13.782;2023-02-02T00:59:04;3.88;;;3.47;;
45490;SDS011;31237;45.586;13.782;2023-02-02T01:01:30;2.63;;;2.42;;
45490;SDS011;31237;45.586;13.782;2023-02-02T01:03:56;2.45;;;2.25;;
45490;SDS011;31237;45.586;13.782;2023-02-02T01:06:21;2.10;;;1.90;;
45490;SDS011;31237;45.586;13.782;2023-02-02T01:08:47;1.23;;;1.15;;
45490;SDS011;31237;45.586;13.782;2023-02-02T01:11:13;3.05;;;2.65;;
45490;SDS011;31237;45.586;13.782;2023-02-02T01:13:39;1.88;;;1.77;;
45490;SDS011;31237;45.586;13.782;2023-02-02T01:16:05;5.88;;;3.15;;
45490;SDS011;31237;45.586;13.782;2023-02-02T01:18:31;3.03;;;2.75;;
45490;SDS011;31237;45.586;13.782;2023-02-02T01:20:57;2.70;;;1.80;;
45490;SDS011;31237;45.586;13.782;2023-02-02T01:23:24;3.90;;;3.58;;
45490;SDS011;31237;45.586;13.782;2023-02-02T01:25:54;2.90;;;2.33;;
45490;SDS011;31237;45.586;13.782;2023-02-02T01:28:25;1.98;;;1.65;;
45490;SDS011;31237;45.586;13.782;2023-02-02T01:30:52;4.22;;;3.75;;
45490;SDS011;31237;45.586;13.782;2023-02-02T01:33:18;1.65;;;1.55;;
45490;SDS011;31237;45.586;13.782;2023-02-02T01:35:47;10.40;;;3.90;;
45490;SDS011;31237;45.586;13.782;2023-02-02T01:38:14;1.80;;;1.70;;
45490;SDS011;31237;45.586;13.782;2023-02-02T01:40:46;1.42;;;1.33;;
45490;SDS011;31237;45.586;13.782;2023-02-02T01:43:21;1.80;;;1.70;;
45490;SDS011;31237;45.586;13.782;2023-02-02T01:45:47;4.40;;;1.65;;
45490;SDS011;31237;45.586;13.782;2023-02-02T01:48:13;1.30;;;1.25;;
45490;SDS011;31237;45.586;13.782;2023-02-02T01:50:39;1.30;;;1.23;;
45490;SDS011;31237;45.586;13.782;2023-02-02T01:53:05;1.55;;;1.45;;
45490;SDS011;31237;45.586;13.782;2023-02-02T01:55:32;0.68;;;0.68;;
45490;SDS011;31237;45.586;13.782;2023-02-02T01:58:03;0.88;;;0.88;;
45490;SDS011;31237;45.586;13.782;2023-02-02T02:00:33;1.60;;;1.50;;
45490;SDS011;31237;45.586;13.782;2023-02-02T02:03:02;0.98;;;0.93;;
45490;SDS011;31237;45.586;13.782;2023-02-02T02:05:32;1.38;;;1.30;;
45490;SDS011;31237;45.586;13.782;2023-02-02T02:08:04;1.08;;;1.05;;
45490;SDS011;31237;45.586;13.782;2023-02-02T02:10:37;1.67;;;1.58;;
45490;SDS011;31237;45.586;13.782;2023-02-02T02:13:04;1.98;;;1.88;;
45490;SDS011;31237;45.586;13.782;2023-02-02T02:15:31;1.83;;;1.73;;
45490;SDS011;31237;45.586;13.782;2023-02-02T02:18:28;1.33;;;1.23;;
45490;SDS011;31237;45.586;13.782;2023-02-02T02:30:38;4.35;;;3.95;;
45490;SDS011;31237;45.586;13.782;2023-02-02T02:40:50;3.72;;;2.45;;
45490;SDS011;31237;45.586;13.782;2023-02-02T02:45:48;1.80;;;1.15;;
45490;SDS011;31237;45.586;13.782;2023-02-02T02:48:15;3.83;;;2.85;;
45490;SDS011;31237;45.586;13.782;2023-02-02T02:50:41;1.50;;;1.40;;
45490;SDS011;31237;45.586;13.782;2023-02-02T02:53:08;1.38;;;1.27;;
45490;SDS011;31237;45.586;13.782;2023-02-02T02:55:52;0.93;;;0.93;;
45490;SDS011;31237;45.586;13.782;2023-02-02T02:58:34;0.85;;;0.85;;
45490;SDS011;31237;45.586;13.782;2023-02-02T03:01:09;1.85;;;1.40;;
45490;SDS011;31237;45.586;13.782;2023-02-02T03:06:59;2.20;;;1.25;;
45490;SDS011;31237;45.586;13.782;2023-02-02T03:09:47;0.70;;;0.70;;
45490;SDS011;31237;45.586;13.782;2023-02-02T03:12:15;1.00;;;0.95;;
45490;SDS011;31237;45.586;13.782;2023-02-02T03:14:42;1.35;;;1.25;;
45490;SDS011;31237;45.586;13.782;2023-02-02T03:17:07;0.80;;;0.80;;
45490;SDS011;31237;45.586;13.782;2023-02-02T03:19:33;1.42;;;1.33;;
45490;SDS011;31237;45.586;13.782;2023-02-02T03:21:59;1.50;;;1.40;;
45490;SDS011;31237;45.586;13.782;2023-02-02T03:24:24;2.58;;;2.38;;
45490;SDS011;31237;45.586;13.782;2023-02-02T03:26:50;1.85;;;1.58;;
45490;SDS011;31237;45.586;13.782;2023-02-02T03:29:16;1.30;;;1.23;;
45490;SDS011;31237;45.586;13.782;2023-02-02T03:31:42;1.23;;;1.17;;
45490;SDS011;31237;45.586;13.782;2023-02-02T03:34:08;0.93;;;0.93;;
45490;SDS011;31237;45.586;13.782;2023-02-02T03:36:34;1.80;;;1.70;;
45490;SDS011;31237;45.586;13.782;2023-02-02T03:38:59;1.73;;;1.63;;
45490;SDS011;31237;45.586;13.782;2023-02-02T03:41:25;2.28;;;2.08;;
45490;SDS011;31237;45.586;13.782;2023-02-02T03:43:51;1.65;;;1.55;;
45490;SDS011;31237;45.586;13.782;2023-02-02T03:46:16;0.90;;;0.90;;
45490;SDS011;31237;45.586;13.782;2023-02-02T03:48:42;3.47;;;1.30;;
45490;SDS011;31237;45.586;13.782;2023-02-02T03:51:09;1.60;;;1.50;;
45490;SDS011;31237;45.586;13.782;2023-02-02T03:53:36;1.33;;;1.15;;
45490;SDS011;31237;45.586;13.782;2023-02-02T03:56:03;4.28;;;2.53;;
45490;SDS011;31237;45.586;13.782;2023-02-02T03:58:29;1.63;;;1.45;;
45490;SDS011;31237;45.586;13.782;2023-02-02T04:00:58;1.67;;;1.33;;
45490;SDS011;31237;45.586;13.782;2023-02-02T04:03:27;4.53;;;1.83;;
45490;SDS011;31237;45.586;13.782;2023-02-02T04:05:57;1.15;;;1.13;;
45490;SDS011;31237;45.586;13.782;2023-02-02T04:08:25;2.33;;;2.13;;
45490;SDS011;31237;45.586;13.782;2023-02-02T04:10:51;1.80;;;1.70;;
45490;SDS011;31237;45.586;13.782;2023-02-02T04:13:16;1.90;;;1.80;;
45490;SDS011;31237;45.586;13.782;2023-02-02T04:15:42;1.05;;;1.02;;
45490;SDS011;31237;45.586;13.782;2023-02-02T04:18:08;2.42;;;2.22;;
45490;SDS011;31237;45.586;13.782;2023-02-02T04:20:33;1.30;;;1.30;;
45490;SDS011;31237;45.586;13.782;2023-02-02T04:22:59;1.65;;;1.55;;
45490;SDS011;31237;45.586;13.782;2023-02-02T04:25:25;0.70;;;0.70;;
45490;SDS011;31237;45.586;13.782;2023-02-02T04:27:51;1.55;;;1.45;;
45490;SDS011;31237;45.586;13.782;2023-02-02T04:30:16;1.02;;;0.95;;
45490;SDS011;31237;45.586;13.782;2023-02-02T04:32:44;2.65;;;2.30;;
45490;SDS011;31237;45.586;13.782;2023-02-02T04:35:10;0.45;;;0.45;;
45490;SDS011;31237;45.586;13.782;2023-02-02T04:37:36;2.30;;;1.90;;
45490;SDS011;31237;45.586;13.782;2023-02-02T04:40:02;2.05;;;1.52;;
45490;SDS011;31237;45.586;13.782;2023-02-02T04:42:28;1.40;;;1.25;;
45490;SDS011;31237;45.586;13.782;2023-02-02T04:44:56;2.65;;;2.45;;
45490;SDS011;31237;45.586;13.782;2023-02-02T04:47:21;1.85;;;1.63;;
45490;SDS011;31237;45.586;13.782;2023-02-02T04:49:47;1.20;;;1.15;;
45490;SDS011;31237;45.586;13.782;2023-02-02T04:52:13;2.83;;;2.10;;
45490;SDS011;31237;45.586;13.782;2023-02-02T04:54:38;0.65;;;0.65;;
45490;SDS011;31237;45.586;13.782;2023-02-02T04:57:04;2.88;;;2.50;;
45490;SDS011;31237;45.586;13.782;2023-02-02T04:59:30;1.15;;;1.15;;
45490;SDS011;31237;45.586;13.782;2023-02-02T05:01:58;0.88;;;0.88;;
45490;SDS011;31237;45.586;13.782;2023-02-02T05:04:25;0.60;;;0.60;;
45490;SDS011;31237;45.586;13.782;2023-02-02T05:06:50;2.25;;;1.92;;
45490;SDS011;31237;45.586;13.782;2023-02-02T05:09:16;3.00;;;2.50;;
45490;SDS011;31237;45.586;13.782;2023-02-02T05:11:42;3.10;;;2.85;;
45490;SDS011;31237;45.586;13.782;2023-02-02T05:14:10;0.80;;;0.80;;
45490;SDS011;31237;45.586;13.782;2023-02-02T05:16:36;0.63;;;0.63;;
45490;SDS011;31237;45.586;13.782;2023-02-02T05:19:03;1.42;;;1.33;;
45490;SDS011;31237;45.586;13.782;2023-02-02T05:21:29;0.95;;;0.95;;
45490;SDS011;31237;45.586;13.782;2023-02-02T05:23:55;1.75;;;1.60;;
45490;SDS011;31237;45.586;13.782;2023-02-02T05:26:22;5.53;;;2.28;;
45490;SDS011;31237;45.586;13.782;2023-02-02T05:28:50;0.77;;;0.77;;
45490;SDS011;31237;45.586;13.782;2023-02-02T05:31:17;3.42;;;3.13;;
45490;SDS011;31237;45.586;13.782;2023-02-02T05:33:43;1.63;;;1.58;;
45490;SDS011;31237;45.586;13.782;2023-02-02T05:36:09;14.50;;;4.15;;
45490;SDS011;31237;45.586;13.782;2023-02-02T05:38:35;1.13;;;1.10;;
45490;SDS011;31237;45.586;13.782;2023-02-02T05:41:01;1.98;;;1.80;;
45490;SDS011;31237;45.586;13.782;2023-02-02T05:43:28;2.17;;;1.88;;
45490;SDS011;31237;45.586;13.782;2023-02-02T05:45:56;1.42;;;1.33;;
45490;SDS011;31237;45.586;13.782;2023-02-02T05:48:21;1.20;;;1.00;;
45490;SDS011;31237;45.586;13.782;2023-02-02T05:50:49;1.17;;;1.17;;
45490;SDS011;31237;45.586;13.782;2023-02-02T05:53:40;3.70;;;2.63;;
45490;SDS011;31237;45.586;13.782;2023-02-02T05:56:11;4.20;;;3.20;;
45490;SDS011;31237;45.586;13.782;2023-02-02T05:58:41;3.35;;;2.20;;
45490;SDS011;31237;45.586;13.782;2023-02-02T06:01:08;4.10;;;2.03;;
45490;SDS011;31237;45.586;13.782;2023-02-02T06:03:34;3.22;;;3.03;;
45490;SDS011;31237;45.586;13.782;2023-02-02T06:05:59;2.00;;;1.90;;
45490;SDS011;31237;45.586;13.782;2023-02-02T06:08:25;1.80;;;1.70;;
45490;SDS011;31237;45.586;13.782;2023-02-02T06:10:51;2.13;;;1.75;;
45490;SDS011;31237;45.586;13.782;2023-02-02T06:13:17;2.63;;;2.45;;
45490;SDS011;31237;45.586;13.782;2023-02-02T06:15:42;1.67;;;1.48;;
45490;SDS011;31237;45.586;13.782;2023-02-02T06:18:08;2.75;;;2.55;;
45490;SDS011;31237;45.586;13.782;2023-02-02T06:20:34;4.03;;;2.25;;
45490;SDS011;31237;45.586;13.782;2023-02-02T06:23:00;1.60;;;1.50;;
45490;SDS011;31237;45.586;13.782;2023-02-02T06:25:26;1.23;;;1.23;;
45490;SDS011;31237;45.586;13.782;2023-02-02T06:27:58;0.70;;;0.68;;
45490;SDS011;31237;45.586;13.782;2023-02-02T06:30:25;1.95;;;1.85;;
45490;SDS011;31237;45.586;13.782;2023-02-02T06:32:51;6.20;;;3.88;;
45490;SDS011;31237;45.586;13.782;2023-02-02T06:35:17;2.67;;;2.47;;
45490;SDS011;31237;45.586;13.782;2023-02-02T06:37:43;4.20;;;1.15;;
45490;SDS011;31237;45.586;13.782;2023-02-02T06:40:09;6.07;;;2.97;;
45490;SDS011;31237;45.586;13.782;2023-02-02T06:42:35;0.75;;;0.75;;
45490;SDS011;31237;45.586;13.782;2023-02-02T06:45:02;1.20;;;1.15;;
45490;SDS011;31237;45.586;13.782;2023-02-02T06:47:28;2.13;;;1.35;;
45490;SDS011;31237;45.586;13.782;2023-02-02T06:49:57;0.55;;;0.55;;
45490;SDS011;31237;45.586;13.782;2023-02-02T06:52:22;5.97;;;2.25;;
45490;SDS011;31237;45.586;13.782;2023-02-02T06:54:48;1.33;;;1.23;;
45490;SDS011;31237;45.586;13.782;2023-02-02T06:57:14;0.90;;;0.77;;
45490;SDS011;31237;45.586;13.782;2023-02-02T06:59:40;2.20;;;1.80;;
45490;SDS011;31237;45.586;13.782;2023-02-02T07:02:08;4.95;;;2.78;;
45490;SDS011;31237;45.586;13.782;2023-02-02T07:04:37;1.05;;;1.05;;
45490;SDS011;31237;45.586;13.782;2023-02-02T07:07:06;3.20;;;2.08;;
45490;SDS011;31237;45.586;13.782;2023-02-02T07:09:36;3.08;;;2.15;;
45490;SDS011;31237;45.586;13.782;2023-02-02T07:12:01;4.78;;;1.50;;
45490;SDS011;31237;45.586;13.782;2023-02-02T07:14:27;1.63;;;1.52;;
45490;SDS011;31237;45.586;13.782;2023-02-02T07:16:53;1.77;;;1.67;;
45490;SDS011;31237;45.586;13.782;2023-02-02T07:19:18;3.53;;;1.15;;
45490;SDS011;31237;45.586;13.782;2023-02-02T07:21:44;0.50;;;0.50;;
45490;SDS011;31237;45.586;13.782;2023-02-02T07:24:10;1.52;;;1.45;;
45490;SDS011;31237;45.586;13.782;2023-02-02T07:26:36;0.60;;;0.60;;
45490;SDS011;31237;45.586;13.782;2023-02-02T07:29:02;2.85;;;2.60;;
45490;SDS011;31237;45.586;13.782;2023-02-02T07:31:28;1.85;;;1.75;;
45490;SDS011;31237;45.586;13.782;2023-02-02T07:33:54;1.52;;;1.42;;
45490;SDS011;31237;45.586;13.782;2023-02-02T07:36:20;0.82;;;0.70;;
45490;SDS011;31237;45.586;13.782;2023-02-02T07:38:49;17.20;;;2.58;;
45490;SDS011;31237;45.586;13.782;2023-02-02T07:41:18;1.23;;;1.23;;
45490;SDS011;31237;45.586;13.782;2023-02-02T07:43:45;1.17;;;1.17;;
45490;SDS011;31237;45.586;13.782;2023-02-02T07:46:12;0.73;;;0.73;;
45490;SDS011;31237;45.586;13.782;2023-02-02T07:48:38;1.88;;;1.77;;
45490;SDS011;31237;45.586;13.782;2023-02-02T07:51:06;2.10;;;1.92;;
45490;SDS011;31237;45.586;13.782;2023-02-02T07:53:33;5.28;;;2.33;;
45490;SDS011;31237;45.586;13.782;2023-02-02T07:58:36;2.00;;;1.73;;
45490;SDS011;31237;45.586;13.782;2023-02-02T08:01:02;1.95;;;1.85;;
45490;SDS011;31237;45.586;13.782;2023-02-02T08:03:29;1.90;;;1.80;;
45490;SDS011;31237;45.586;13.782;2023-02-02T08:05:56;1.88;;;1.70;;
45490;SDS011;31237;45.586;13.782;2023-02-02T08:08:22;1.58;;;1.48;;
45490;SDS011;31237;45.586;13.782;2023-02-02T08:10:48;8.70;;;2.50;;
45490;SDS011;31237;45.586;13.782;2023-02-02T08:13:18;2.95;;;2.30;;
45490;SDS011;31237;45.586;13.782;2023-02-02T08:15:44;2.67;;;2.47;;
45490;SDS011;31237;45.586;13.782;2023-02-02T08:18:10;2.13;;;2.03;;
45490;SDS011;31237;45.586;13.782;2023-02-02T08:20:36;5.05;;;3.17;;
45490;SDS011;31237;45.586;13.782;2023-02-02T08:23:02;6.28;;;3.28;;
45490;SDS011;31237;45.586;13.782;2023-02-02T08:25:28;1.60;;;1.50;;
45490;SDS011;31237;45.586;13.782;2023-02-02T08:27:54;3.20;;;1.83;;
45490;SDS011;31237;45.586;13.782;2023-02-02T08:30:22;4.15;;;2.13;;
45490;SDS011;31237;45.586;13.782;2023-02-02T08:32:48;10.85;;;4.45;;
45490;SDS011;31237;45.586;13.782;2023-02-02T08:35:14;6.32;;;3.28;;
45490;SDS011;31237;45.586;13.782;2023-02-02T08:37:41;0.82;;;0.82;;
45490;SDS011;31237;45.586;13.782;2023-02-02T08:40:07;1.48;;;1.38;;
45490;SDS011;31237;45.586;13.782;2023-02-02T08:42:33;0.85;;;0.85;;
45490;SDS011;31237;45.586;13.782;2023-02-02T08:44:59;2.25;;;2.05;;
45490;SDS011;31237;45.586;13.782;2023-02-02T08:47:27;0.68;;;0.68;;
45490;SDS011;31237;45.586;13.782;2023-02-02T08:49:53;1.13;;;1.13;;
45490;SDS011;31237;45.586;13.782;2023-02-02T08:52:19;2.47;;;1.13;;
45490;SDS011;31237;45.586;13.782;2023-02-02T08:54:45;1.73;;;1.63;;
45490;SDS011;31237;45.586;13.782;2023-02-02T08:57:10;2.63;;;2.40;;
45490;SDS011;31237;45.586;13.782;2023-02-02T08:59:36;2.17;;;1.98;;
45490;SDS011;31237;45.586;13.782;2023-02-02T09:02:02;1.75;;;1.65;;
45490;SDS011;31237;45.586;13.782;2023-02-02T09:04:28;3.97;;;3.20;;
45490;SDS011;31237;45.586;13.782;2023-02-02T09:06:53;4.97;;;2.33;;
45490;SDS011;31237;45.586;13.782;2023-02-02T09:09:19;6.20;;;2.60;;
45490;SDS011;31237;45.586;13.782;2023-02-02T09:11:45;1.55;;;1.45;;
45490;SDS011;31237;45.586;13.782;2023-02-02T09:14:11;2.55;;;2.35;;
45490;SDS011;31237;45.586;13.782;2023-02-02T09:16:37;2.13;;;2.03;;
45490;SDS011;31237;45.586;13.782;2023-02-02T09:19:04;2.72;;;2.53;;
45490;SDS011;31237;45.586;13.782;2023-02-02T09:21:30;3.22;;;2.92;;
45490;SDS011;31237;45.586;13.782;2023-02-02T09:24:00;2.08;;;1.92;;
45490;SDS011;31237;45.586;13.782;2023-02-02T09:26:34;2.40;;;2.20;;
45490;SDS011;31237;45.586;13.782;2023-02-02T09:29:00;2.20;;;2.00;;
45490;SDS011;31237;45.586;13.782;2023-02-02T09:31:28;4.32;;;3.92;;
45490;SDS011;31237;45.586;13.782;2023-02-02T09:34:15;9.48;;;4.15;;
45490;SDS011;31237;45.586;13.782;2023-02-02T09:36:41;6.90;;;3.45;;
45490;SDS011;31237;45.586;13.782;2023-02-02T09:39:08;7.00;;;3.58;;
45490;SDS011;31237;45.586;13.782;2023-02-02T09:52:33;5.60;;;5.10;;
45490;SDS011;31237;45.586;13.782;2023-02-02T09:55:14;8.38;;;5.43;;
45490;SDS011;31237;45.586;13.782;2023-02-02T09:57:51;10.35;;;4.97;;
45490;SDS011;31237;45.586;13.782;2023-02-02T10:00:28;11.33;;;3.77;;
45490;SDS011;31237;45.586;13.782;2023-02-02T10:03:01;3.97;;;3.55;;
45490;SDS011;31237;45.586;13.782;2023-02-02T10:05:39;2.00;;;1.83;;
45490;SDS011;31237;45.586;13.782;2023-02-02T10:08:37;6.65;;;4.50;;
45490;SDS011;31237;45.586;13.782;2023-02-02T10:14:01;9.60;;;5.20;;
45490;SDS011;31237;45.586;13.782;2023-02-02T10:16:30;6.82;;;4.22;;
45490;SDS011;31237;45.586;13.782;2023-02-02T10:19:10;5.78;;;4.32;;
45490;SDS011;31237;45.586;13.782;2023-02-02T10:21:39;5.75;;;4.75;;
45490;SDS011;31237;45.586;13.782;2023-02-02T10:24:21;8.85;;;3.78;;
45490;SDS011;31237;45.586;13.782;2023-02-02T10:26:55;6.32;;;3.70;;
45490;SDS011;31237;45.586;13.782;2023-02-02T10:32:26;3.80;;;3.38;;
45490;SDS011;31237;45.586;13.782;2023-02-02T10:46:02;3.97;;;3.60;;
45490;SDS011;31237;45.586;13.782;2023-02-02T10:48:33;6.70;;;4.68;;
45490;SDS011;31237;45.586;13.782;2023-02-02T10:51:01;9.75;;;5.10;;
45490;SDS011;31237;45.586;13.782;2023-02-02T10:53:35;10.73;;;4.95;;
45490;SDS011;31237;45.586;13.782;2023-02-02T10:56:02;12.55;;;6.95;;
45490;SDS011;31237;45.586;13.782;2023-02-02T11:01:08;7.68;;;4.78;;
45490;SDS011;31237;45.586;13.782;2023-02-02T11:03:35;5.25;;;4.60;;
45490;SDS011;31237;45.586;13.782;2023-02-02T11:06:03;10.90;;;5.47;;
45490;SDS011;31237;45.586;13.782;2023-02-02T11:08:51;9.20;;;4.45;;
45490;SDS011;31237;45.586;13.782;2023-02-02T11:11:22;5.75;;;4.18;;
45490;SDS011;31237;45.586;13.782;2023-02-02T11:16:35;14.57;;;5.80;;
45490;SDS011;31237;45.586;13.782;2023-02-02T11:19:36;11.77;;;5.97;;
45490;SDS011;31237;45.586;13.782;2023-02-02T11:21:56;5.43;;;5.03;;
45490;SDS011;31237;45.586;13.782;2023-02-02T11:24:27;5.28;;;3.30;;
45490;SDS011;31237;45.586;13.782;2023-02-02T11:27:06;13.02;;;6.00;;
45490;SDS011;31237;45.586;13.782;2023-02-02T11:37:32;11.35;;;4.22;;
45490;SDS011;31237;45.586;13.782;2023-02-02T11:43:19;4.72;;;3.85;;
45490;SDS011;31237;45.586;13.782;2023-02-02T11:46:17;4.32;;;3.92;;
45490;SDS011;31237;45.586;13.782;2023-02-02T11:49:11;4.85;;;4.35;;
45490;SDS011;31237;45.586;13.782;2023-02-02T11:51:40;6.82;;;4.75;;
45490;SDS011;31237;45.586;13.782;2023-02-02T11:54:19;13.88;;;6.80;;
45490;SDS011;31237;45.586;13.782;2023-02-02T11:57:02;7.78;;;5.82;;
45490;SDS011;31237;45.586;13.782;2023-02-02T11:59:38;11.05;;;9.45;;
45490;SDS011;31237;45.586;13.782;2023-02-02T12:04:44;18.55;;;11.73;;
45490;SDS011;31237;45.586;13.782;2023-02-02T12:07:18;15.18;;;10.13;;
45490;SDS011;31237;45.586;13.782;2023-02-02T12:09:49;6.32;;;5.72;;
45490;SDS011;31237;45.586;13.782;2023-02-02T12:14:49;5.82;;;3.25;;
45490;SDS011;31237;45.586;13.782;2023-02-02T12:17:33;16.27;;;9.15;;
45490;SDS011;31237;45.586;13.782;2023-02-02T12:26:23;7.70;;;3.75;;
45490;SDS011;31237;45.586;13.782;2023-02-02T12:38:21;5.60;;;5.07;;
45490;SDS011;31237;45.586;13.782;2023-02-02T12:43:27;9.52;;;5.13;;
45490;SDS011;31237;45.586;13.782;2023-02-02T12:48:54;8.32;;;7.55;;
45490;SDS011;31237;45.586;13.782;2023-02-02T13:14:05;4.15;;;3.03;;
45490;SDS011;31237;45.586;13.782;2023-02-02T13:16:47;5.47;;;3.05;;
45490;SDS011;31237;45.586;13.782;2023-02-02T13:21:48;12.68;;;5.57;;
45490;SDS011;31237;45.586;13.782;2023-02-02T13:24:19;6.03;;;3.78;;
45490;SDS011;31237;45.586;13.782;2023-02-02T13:26:52;5.05;;;4.65;;
45490;SDS011;31237;45.586;13.782;2023-02-02T13:29:33;5.07;;;4.55;;
45490;SDS011;31237;45.586;13.782;2023-02-02T13:35:12;16.15;;;5.65;;
45490;SDS011;31237;45.586;13.782;2023-02-02T13:40:38;8.98;;;5.40;;
45490;SDS011;31237;45.586;13.782;2023-02-02T13:43:21;9.18;;;5.50;;
45490;SDS011;31237;45.586;13.782;2023-02-02T13:49:15;3.85;;;2.97;;
45490;SDS011;31237;45.586;13.782;2023-02-02T13:55:19;7.65;;;5.15;;
45490;SDS011;31237;45.586;13.782;2023-02-02T14:00:34;3.58;;;3.00;;
45490;SDS011;31237;45.586;13.782;2023-02-02T14:06:13;3.10;;;2.90;;
45490;SDS011;31237;45.586;13.782;2023-02-02T14:08:54;5.43;;;3.50;;
45490;SDS011;31237;45.586;13.782;2023-02-02T14:11:32;4.65;;;3.03;;
45490;SDS011;31237;45.586;13.782;2023-02-02T14:14:16;3.40;;;3.08;;
45490;SDS011;31237;45.586;13.782;2023-02-02T14:19:46;8.35;;;4.53;;
45490;SDS011;31237;45.586;13.782;2023-02-02T14:29:33;3.17;;;2.88;;
45490;SDS011;31237;45.586;13.782;2023-02-02T14:34:54;4.35;;;3.10;;
45490;SDS011;31237;45.586;13.782;2023-02-02T14:40:36;3.72;;;3.42;;
45490;SDS011;31237;45.586;13.782;2023-02-02T14:43:32;2.50;;;2.25;;
45490;SDS011;31237;45.586;13.782;2023-02-02T14:46:15;1.73;;;1.63;;
45490;SDS011;31237;45.586;13.782;2023-02-02T14:51:19;3.50;;;3.20;;
45490;SDS011;31237;45.586;13.782;2023-02-02T14:54:21;3.97;;;3.38;;
45490;SDS011;31237;45.586;13.782;2023-02-02T14:56:51;10.23;;;6.30;;
45490;SDS011;31237;45.586;13.782;2023-02-02T14:59:21;5.97;;;3.50;;
45490;SDS011;31237;45.586;13.782;2023-02-02T15:01:56;3.92;;;2.22;;
45490;SDS011;31237;45.586;13.782;2023-02-02T15:04:25;4.30;;;3.40;;
45490;SDS011;31237;45.586;13.782;2023-02-02T15:06:52;6.45;;;2.75;;
45490;SDS011;31237;45.586;13.782;2023-02-02T15:14:29;2.03;;;1.83;;
45490;SDS011;31237;45.586;13.782;2023-02-02T15:23:01;2.13;;;1.92;;
45490;SDS011;31237;45.586;13.782;2023-02-02T15:25:48;2.88;;;2.67;;
45490;SDS011;31237;45.586;13.782;2023-02-02T15:28:20;3.33;;;2.45;;
45490;SDS011;31237;45.586;13.782;2023-02-02T15:33:40;2.10;;;1.98;;
45490;SDS011;31237;45.586;13.782;2023-02-02T15:36:11;8.40;;;2.78;;
45490;SDS011;31237;45.586;13.782;2023-02-02T15:38:44;2.95;;;2.75;;
45490;SDS011;31237;45.586;13.782;2023-02-02T15:41:23;2.97;;;2.70;;
45490;SDS011;31237;45.586;13.782;2023-02-02T15:43:58;2.45;;;2.13;;
45490;SDS011;31237;45.586;13.782;2023-02-02T15:46:25;5.85;;;3.65;;
45490;SDS011;31237;45.586;13.782;2023-02-02T15:51:44;9.65;;;3.67;;
45490;SDS011;31237;45.586;13.782;2023-02-02T15:57:36;2.42;;;2.25;;
45490;SDS011;31237;45.586;13.782;2023-02-02T16:00:53;2.40;;;1.88;;
45490;SDS011;31237;45.586;13.782;2023-02-02T16:02:56;2.72;;;2.53;;
45490;SDS011;31237;45.586;13.782;2023-02-02T16:08:01;2.45;;;2.25;;
45490;SDS011;31237;45.586;13.782;2023-02-02T16:10:39;3.75;;;3.00;;
45490;SDS011;31237;45.586;13.782;2023-02-02T16:13:16;3.47;;;2.38;;
45490;SDS011;31237;45.586;13.782;2023-02-02T16:15:53;5.43;;;4.28;;
45490;SDS011;31237;45.586;13.782;2023-02-02T16:18:26;1.67;;;1.58;;
45490;SDS011;31237;45.586;13.782;2023-02-02T16:20:52;2.22;;;2.03;;
45490;SDS011;31237;45.586;13.782;2023-02-02T16:23:21;2.30;;;1.77;;
45490;SDS011;31237;45.586;13.782;2023-02-02T16:25:54;6.43;;;3.42;;
45490;SDS011;31237;45.586;13.782;2023-02-02T16:28:23;2.40;;;2.22;;
45490;SDS011;31237;45.586;13.782;2023-02-02T16:30:50;2.60;;;2.38;;
45490;SDS011;31237;45.586;13.782;2023-02-02T16:33:34;9.38;;;4.00;;
45490;SDS011;31237;45.586;13.782;2023-02-02T16:36:00;1.42;;;1.33;;
45490;SDS011;31237;45.586;13.782;2023-02-02T16:38:31;2.35;;;2.15;;
45490;SDS011;31237;45.586;13.782;2023-02-02T16:41:10;5.65;;;1.80;;
45490;SDS011;31237;45.586;13.782;2023-02-02T16:43:37;4.07;;;2.83;;
45490;SDS011;31237;45.586;13.782;2023-02-02T16:46:09;1.75;;;1.63;;
45490;SDS011;31237;45.586;13.782;2023-02-02T16:48:44;2.85;;;1.45;;
45490;SDS011;31237;45.586;13.782;2023-02-02T16:51:24;1.48;;;1.38;;
45490;SDS011;31237;45.586;13.782;2023-02-02T16:56:45;4.72;;;2.65;;
45490;SDS011;31237;45.586;13.782;2023-02-02T16:59:20;3.13;;;2.90;;
45490;SDS011;31237;45.586;13.782;2023-02-02T17:01:58;2.20;;;2.05;;
45490;SDS011;31237;45.586;13.782;2023-02-02T17:04:29;0.80;;;0.80;;
45490;SDS011;31237;45.586;13.782;2023-02-02T17:07:04;5.32;;;3.35;;
45490;SDS011;31237;45.586;13.782;2023-02-02T17:09:38;5.85;;;3.03;;
45490;SDS011;31237;45.586;13.782;2023-02-02T17:12:20;10.00;;;2.17;;
45490;SDS011;31237;45.586;13.782;2023-02-02T17:14:51;1.67;;;1.58;;
45490;SDS011;31237;45.586;13.782;2023-02-02T17:17:38;1.88;;;1.77;;
45490;SDS011;31237;45.586;13.782;2023-02-02T17:20:04;3.25;;;2.60;;
45490;SDS011;31237;45.586;13.782;2023-02-02T17:22:30;5.15;;;3.38;;
45490;SDS011;31237;45.586;13.782;2023-02-02T17:24:58;1.63;;;1.55;;
45490;SDS011;31237;45.586;13.782;2023-02-02T17:27:27;2.85;;;2.65;;
45490;SDS011;31237;45.586;13.782;2023-02-02T17:29:58;4.15;;;2.78;;
45490;SDS011;31237;45.586;13.782;2023-02-02T17:32:26;3.15;;;2.88;;
45490;SDS011;31237;45.586;13.782;2023-02-02T17:34:51;6.47;;;4.18;;
45490;SDS011;31237;45.586;13.782;2023-02-02T17:37:17;1.58;;;1.48;;
45490;SDS011;31237;45.586;13.782;2023-02-02T17:39:43;4.45;;;2.70;;
45490;SDS011;31237;45.586;13.782;2023-02-02T17:42:25;4.57;;;4.10;;
45490;SDS011;31237;45.586;13.782;2023-02-02T17:44:51;19.15;;;4.88;;
45490;SDS011;31237;45.586;13.782;2023-02-02T17:47:17;2.00;;;1.83;;
45490;SDS011;31237;45.586;13.782;2023-02-02T17:49:43;2.85;;;2.22;;
45490;SDS011;31237;45.586;13.782;2023-02-02T17:52:09;1.80;;;1.65;;